createdAt,value
2022-12-03T00:03:35.920Z,3.85
2022-12-03T00:07:45.670Z,3.72
2022-12-03T00:12:01.988Z,3.74
2022-12-03T00:16:25.719Z,3.74
2022-12-03T00:20:47.362Z,3.61
2022-12-03T00:24:52.927Z,3.85
2022-12-03T00:29:06.021Z,3.83
2022-12-03T00:33:13.867Z,3.89
2022-12-03T00:37:26.678Z,3.80
2022-12-03T00:45:54.112Z,3.44
2022-12-03T00:50:02.631Z,3.58
2022-12-03T00:54:19.772Z,3.58
2022-12-03T00:58:29.732Z,3.83
2022-12-03T01:02:42.898Z,3.44
2022-12-03T01:06:47.559Z,3.44
2022-12-03T01:10:55.094Z,3.28
2022-12-03T01:15:04.467Z,3.42
2022-12-03T01:19:24.248Z,3.60
2022-12-03T01:28:29.271Z,3.76
2022-12-03T01:32:45.828Z,3.58
2022-12-03T01:41:55.355Z,4.40
2022-12-03T01:46:03.887Z,3.84
2022-12-03T01:50:36.115Z,4.22
2022-12-03T01:55:59.236Z,4.23
2022-12-03T01:59:49.596Z,4.47
2022-12-03T02:04:40.379Z,4.37
2022-12-03T02:09:10.563Z,4.18
2022-12-03T02:13:43.727Z,4.11
2022-12-03T02:19:01.741Z,4.45
2022-12-03T02:23:16.800Z,4.64
2022-12-03T02:32:07.506Z,4.38
2022-12-03T02:40:49.369Z,4.58
2022-12-03T02:45:14.177Z,4.58
2022-12-03T02:49:41.443Z,5.04
2022-12-03T02:54:10.153Z,5.10
2022-12-03T02:58:42.921Z,5.02
2022-12-03T03:02:58.427Z,4.63
2022-12-03T03:07:17.057Z,4.35
2022-12-03T03:11:35.718Z,4.67
2022-12-03T03:16:17.601Z,4.78
2022-12-03T03:20:34.179Z,4.84
2022-12-03T03:25:27.877Z,4.16
2022-12-03T03:30:34.152Z,4.69
2022-12-03T03:35:47.715Z,4.81
2022-12-03T07:08:41.634Z,3.68
2022-12-03T08:04:18.236Z,3.80
2022-12-03T08:08:47.732Z,4.14
2022-12-03T08:13:12.649Z,3.99
2022-12-03T09:59:34.718Z,4.73
2022-12-03T10:03:46.033Z,4.53
2022-12-03T10:07:49.047Z,5.15
2022-12-03T10:11:54.526Z,4.88
2022-12-03T10:15:58.547Z,4.92
2022-12-03T10:20:01.631Z,5.19
2022-12-03T10:24:17.862Z,5.27
2022-12-03T10:28:38.505Z,5.17
2022-12-03T10:32:46.636Z,4.87
2022-12-03T10:37:08.126Z,5.14
2022-12-03T10:41:28.737Z,4.55
2022-12-03T10:45:30.188Z,4.33
2022-12-03T10:49:31.790Z,4.36
2022-12-03T10:53:35.658Z,4.10
2022-12-03T10:57:41.092Z,4.27
2022-12-03T11:01:45.768Z,4.51
2022-12-03T11:05:47.981Z,4.26
2022-12-03T11:09:51.146Z,4.33
2022-12-03T11:14:03.627Z,3.97
2022-12-03T11:18:05.075Z,4.25
2022-12-03T11:22:17.438Z,4.00
2022-12-03T11:26:38.881Z,4.33
2022-12-03T11:30:53.220Z,4.53
2022-12-03T11:34:54.993Z,4.44
2022-12-03T11:38:56.620Z,4.36
2022-12-03T11:42:58.096Z,4.67
2022-12-03T11:47:07.529Z,5.04
2022-12-03T14:07:24.400Z,2.56
2022-12-03T14:11:44.637Z,2.90
2022-12-03T14:15:46.114Z,2.88
2022-12-03T14:19:47.507Z,3.06
2022-12-03T14:23:49.284Z,2.91
2022-12-03T14:27:50.880Z,2.98
2022-12-03T14:31:52.356Z,2.96
2022-12-03T14:35:55.840Z,3.28
2022-12-03T14:39:57.535Z,3.49
2022-12-03T14:43:59.175Z,3.53
2022-12-03T14:48:00.583Z,3.46
2022-12-03T14:52:02.118Z,3.40
2022-12-03T14:56:03.563Z,3.54
2022-12-03T15:00:07.022Z,3.28
2022-12-03T15:04:08.848Z,4.06
2022-12-03T15:08:10.295Z,3.82
2022-12-03T15:12:11.748Z,3.60
2022-12-03T15:16:13.242Z,3.56
2022-12-03T15:20:14.866Z,3.05
2022-12-03T15:24:17.006Z,3.40
2022-12-03T15:28:18.757Z,3.52
2022-12-03T15:32:20.179Z,3.55
2022-12-03T15:36:21.608Z,3.35
2022-12-03T15:40:24.173Z,2.89
2022-12-03T15:44:25.549Z,3.17
2022-12-03T15:48:26.943Z,2.96
2022-12-03T15:52:28.346Z,3.12
2022-12-03T15:56:29.880Z,2.92
2022-12-03T16:00:31.327Z,2.80
2022-12-03T16:04:33.566Z,2.54
2022-12-03T16:08:35.061Z,2.93
2022-12-03T16:12:36.580Z,2.80
2022-12-03T16:16:38.033Z,2.81
2022-12-03T16:20:39.560Z,3.03
2022-12-03T16:24:41.236Z,3.05
2022-12-03T16:28:42.804Z,2.76
2022-12-03T16:32:44.243Z,3.00
2022-12-03T16:36:45.749Z,2.50
2022-12-03T16:40:47.246Z,2.61
2022-12-03T16:45:14.522Z,2.47
2022-12-03T16:49:15.920Z,3.05
2022-12-03T16:53:17.332Z,2.91
2022-12-03T16:57:18.756Z,2.25
2022-12-03T17:01:20.280Z,2.78
2022-12-03T17:05:21.889Z,2.67
2022-12-03T17:09:23.338Z,2.65
2022-12-03T17:13:24.753Z,2.84
2022-12-03T17:17:26.146Z,2.56
2022-12-03T17:21:32.084Z,2.51
2022-12-03T17:25:35.375Z,2.70
2022-12-03T17:29:37.306Z,2.71
2022-12-03T17:38:48.843Z,2.64
2022-12-03T17:42:50.340Z,2.18
2022-12-03T17:46:51.840Z,2.64
2022-12-03T17:50:55.255Z,2.41
2022-12-03T17:55:17.776Z,1.97
2022-12-03T17:59:18.115Z,2.20
2022-12-03T18:03:19.521Z,2.50
2022-12-03T18:07:20.930Z,2.28
2022-12-03T18:11:22.655Z,2.38
2022-12-03T18:15:24.068Z,2.43
2022-12-03T18:19:25.707Z,2.50
2022-12-03T18:23:27.526Z,2.30
2022-12-03T18:27:29.104Z,2.13
2022-12-03T18:31:30.672Z,2.36
2022-12-03T18:35:32.324Z,2.55
2022-12-03T18:39:36.717Z,2.17
2022-12-03T18:43:41.195Z,2.17
2022-12-03T18:47:43.303Z,1.96
2022-12-03T18:51:44.910Z,2.38
2022-12-03T18:55:47.563Z,2.23
2022-12-03T18:59:53.181Z,2.19
2022-12-03T19:03:54.948Z,2.51
2022-12-03T19:07:57.174Z,2.01
2022-12-03T19:11:58.638Z,2.41
2022-12-03T19:16:04.259Z,2.81
2022-12-03T19:20:09.071Z,2.24
2022-12-03T19:24:26.148Z,2.37
2022-12-03T19:28:28.666Z,2.55
2022-12-03T19:32:30.283Z,2.75
2022-12-03T19:36:32.678Z,2.45
2022-12-03T19:40:34.100Z,2.36
2022-12-03T19:44:35.584Z,2.45
2022-12-03T19:48:39.315Z,2.18
2022-12-03T19:52:40.703Z,2.43
2022-12-03T19:56:42.962Z,2.04
2022-12-03T20:00:44.392Z,2.28
2022-12-03T20:04:45.820Z,2.37
2022-12-03T20:08:47.389Z,2.11
2022-12-03T20:12:48.863Z,2.14
2022-12-03T20:16:50.382Z,2.26
2022-12-03T20:20:51.831Z,2.07
2022-12-03T20:24:53.538Z,2.54
2022-12-03T20:28:56.489Z,2.47
2022-12-03T20:32:57.927Z,2.41
2022-12-03T20:36:59.426Z,2.26
2022-12-03T20:41:02.325Z,2.29
2022-12-03T20:45:04.206Z,1.97
2022-12-03T20:49:05.614Z,2.42
2022-12-03T20:53:24.235Z,2.28
2022-12-03T20:57:26.743Z,1.81
2022-12-03T21:01:28.797Z,2.28
2022-12-03T21:05:30.333Z,2.55
2022-12-03T21:09:31.833Z,2.59
2022-12-03T21:13:33.267Z,2.63
2022-12-03T21:17:34.669Z,2.26
2022-12-03T21:21:36.318Z,2.69
2022-12-03T21:25:38.271Z,2.47
2022-12-03T21:29:39.744Z,2.53
2022-12-03T21:33:41.804Z,1.91
2022-12-03T21:37:43.209Z,2.05
2022-12-03T21:42:19.054Z,2.54
2022-12-03T21:47:12.752Z,2.58
2022-12-03T21:50:30.207Z,2.42
2022-12-03T21:54:31.616Z,2.66
2022-12-03T21:58:33.033Z,3.01
2022-12-03T22:02:34.561Z,3.01
2022-12-03T22:06:36.057Z,2.68
2022-12-03T22:10:37.554Z,2.37
2022-12-03T22:14:39.805Z,2.37
2022-12-03T22:18:42.697Z,1.90
2022-12-03T22:22:44.124Z,2.05
2022-12-03T22:26:46.442Z,2.51
2022-12-03T22:30:47.868Z,2.50
2022-12-03T22:34:49.673Z,2.50
2022-12-03T22:38:51.431Z,2.43
2022-12-03T22:42:52.914Z,2.10
2022-12-03T22:46:54.439Z,2.04
2022-12-03T22:50:55.896Z,2.01
2022-12-03T22:54:57.338Z,2.25
2022-12-03T22:58:59.029Z,2.29
2022-12-03T23:03:00.987Z,2.21
2022-12-03T23:07:02.503Z,2.20
2022-12-03T23:11:03.904Z,2.79
2022-12-03T23:15:06.180Z,2.46
2022-12-03T23:19:07.654Z,2.42
2022-12-03T23:23:09.063Z,2.37
2022-12-03T23:27:10.517Z,1.94
2022-12-03T23:31:29.636Z,2.74
2022-12-03T23:35:31.862Z,2.76
2022-12-03T23:39:33.264Z,2.72
2022-12-03T23:43:35.176Z,2.41
2022-12-03T23:47:36.623Z,2.25
2022-12-03T23:51:38.269Z,2.82
2022-12-03T23:55:40.405Z,2.55
2022-12-03T23:59:42.120Z,2.82
